Time;durP1;ratioP1;P1;durP2;ratioP2;P2;SDS_P1;SDS_P2;PMS_P1;PMS_P2;Temp;Humidity;BMP_temperature;BMP_pressure;BME280_temperature;BME280_humidity;BME280_pressure;Samples;Min_cycle;Max_cycle;Signal;HPM_P1;HPM_P2
2021/01/25 00:00:29;;;;;;;4.33;3.93;;;3.4;99.9;;;;;;;;;
2021/01/25 00:01:04;;;;;;;4.33;3.93;;;3.4;99.9;;;;;;;;;
2021/01/25 00:02:02;;;;;;;4.97;4.27;;;3.3;99.9;;;;;;;;;
2021/01/25 00:02:42;;;;;;;5.33;4.1;;;3.4;99.9;;;;;;;;;
2021/01/25 00:03:02;;;;;;;5.33;4.1;;;3.4;99.9;;;;;;;;;
2021/01/25 00:03:18;;;;;;;5.33;4.1;;;3.4;99.9;;;;;;;;;
2021/01/25 00:04:02;;;;;;;5.43;4.4;;;3.4;99.9;;;;;;;;;
2021/01/25 00:04:14;;;;;;;5.43;4.4;;;3.4;99.9;;;;;;;;;
2021/01/25 00:04:55;;;;;;;6.73;4.83;;;3.3;99.9;;;;;;;;;
2021/01/25 00:05:02;;;;;;;6.73;4.83;;;3.3;99.9;;;;;;;;;
2021/01/25 00:05:16;;;;;;;6.73;4.83;;;3.3;99.9;;;;;;;;;
2021/01/25 00:05:31;;;;;;;6.1;4.17;;;3.4;99.9;;;;;;;;;
2021/01/25 00:06:02;;;;;;;6.1;4.17;;;3.4;99.9;;;;;;;;;
2021/01/25 00:06:17;;;;;;;6.1;4.17;;;3.4;99.9;;;;;;;;;
2021/01/25 00:06:27;;;;;;;5.57;4.5;;;3.4;99.9;;;;;;;;;
2021/01/25 00:07:02;;;;;;;5.57;4.5;;;3.4;99.9;;;;;;;;;
2021/01/25 00:07:08;;;;;;;5.57;4.5;;;3.4;99.9;;;;;;;;;
2021/01/25 00:07:13;;;;;;;5.57;4.5;;;3.4;99.9;;;;;;;;;
2021/01/25 00:07:29;;;;;;;4.97;3.73;;;3.4;99.9;;;;;;;;;
2021/01/25 00:07:44;;;;;;;4.97;3.73;;;3.4;99.9;;;;;;;;;
2021/01/25 00:08:02;;;;;;;4.97;3.73;;;3.4;99.9;;;;;;;;;
2021/01/25 00:08:15;;;;;;;4.97;3.73;;;3.4;99.9;;;;;;;;;
2021/01/25 00:08:30;;;;;;;5.73;3.97;;;3.4;99.9;;;;;;;;;
2021/01/25 00:08:40;;;;;;;5.73;3.97;;;3.4;99.9;;;;;;;;;
2021/01/25 00:09:02;;;;;;;5.73;3.97;;;3.4;99.9;;;;;;;;;
2021/01/25 00:09:16;;;;;;;5.73;3.97;;;3.4;99.9;;;;;;;;;
2021/01/25 00:09:26;;;;;;;5.73;3.97;;;3.4;99.9;;;;;;;;;
2021/01/25 00:09:42;;;;;;;5.03;4.13;;;3.4;99.9;;;;;;;;;
2021/01/25 00:09:57;;;;;;;5.03;4.13;;;3.4;99.9;;;;;;;;;
2021/01/25 00:10:02;;;;;;;5.03;4.13;;;3.4;99.9;;;;;;;;;
2021/01/25 00:10:13;;;;;;;5.03;4.13;;;3.4;99.9;;;;;;;;;
2021/01/25 00:10:28;;;;;;;4.53;4;;;3.4;99.9;;;;;;;;;
2021/01/25 00:10:43;;;;;;;4.53;4;;;3.4;99.9;;;;;;;;;
2021/01/25 00:10:54;;;;;;;4.53;4;;;3.4;99.9;;;;;;;;;
2021/01/25 00:11:02;;;;;;;4.53;4;;;3.4;99.9;;;;;;;;;
2021/01/25 00:11:14;;;;;;;4.53;4;;;3.4;99.9;;;;;;;;;
2021/01/25 00:11:29;;;;;;;6.3;4.63;;;3.4;99.9;;;;;;;;;
2021/01/25 00:11:40;;;;;;;6.3;4.63;;;3.4;99.9;;;;;;;;;
2021/01/25 00:11:57;;;;;;;6.3;4.63;;;3.4;99.9;;;;;;;;;
2021/01/25 00:12:02;;;;;;;6.3;4.63;;;3.4;99.9;;;;;;;;;
2021/01/25 00:12:10;;;;;;;6.3;4.63;;;3.4;99.9;;;;;;;;;
2021/01/25 00:12:15;;;;;;;6.3;4.63;;;3.4;99.9;;;;;;;;;
2021/01/25 00:12:26;;;;;;;6.3;4.63;;;3.4;99.9;;;;;;;;;
2021/01/25 00:12:41;;;;;;;6.03;4.9;;;3.3;99.9;;;;;;;;;
2021/01/25 00:12:56;;;;;;;6.03;4.9;;;3.3;99.9;;;;;;;;;
2021/01/25 00:13:02;;;;;;;6.03;4.9;;;3.3;99.9;;;;;;;;;
2021/01/25 00:13:07;;;;;;;6.03;4.9;;;3.3;99.9;;;;;;;;;
2021/01/25 00:13:12;;;;;;;6.03;4.9;;;3.3;99.9;;;;;;;;;
2021/01/25 00:13:27;;;;;;;6.03;4.9;;;3.3;99.9;;;;;;;;;
2021/01/25 00:13:42;;;;;;;5.8;4.37;;;3.5;99.9;;;;;;;;;
2021/01/25 00:13:53;;;;;;;5.8;4.37;;;3.5;99.9;;;;;;;;;
2021/01/25 00:14:02;;;;;;;5.8;4.37;;;3.5;99.9;;;;;;;;;
2021/01/25 00:14:08;;;;;;;5.8;4.37;;;3.5;99.9;;;;;;;;;
2021/01/25 00:14:13;;;;;;;5.8;4.37;;;3.5;99.9;;;;;;;;;
2021/01/25 00:14:29;;;;;;;5.13;4.1;;;3.6;99.9;;;;;;;;;
2021/01/25 00:14:39;;;;;;;5.13;4.1;;;3.6;99.9;;;;;;;;;
2021/01/25 00:14:54;;;;;;;5.13;4.1;;;3.6;99.9;;;;;;;;;
2021/01/25 00:15:02;;;;;;;5.13;4.1;;;3.6;99.9;;;;;;;;;
2021/01/25 00:15:10;;;;;;;5.13;4.1;;;3.6;99.9;;;;;;;;;
2021/01/25 00:15:15;;;;;;;5.13;4.1;;;3.6;99.9;;;;;;;;;
2021/01/25 00:15:25;;;;;;;5.13;4.1;;;3.6;99.9;;;;;;;;;
2021/01/25 00:15:40;;;;;;;6.2;4.47;;;3.7;99.9;;;;;;;;;
2021/01/25 00:15:56;;;;;;;6.2;4.47;;;3.7;99.9;;;;;;;;;
2021/01/25 00:16:01;;;;;;;6.2;4.47;;;3.7;99.9;;;;;;;;;
2021/01/25 00:16:06;;;;;;;6.2;4.47;;;3.7;99.9;;;;;;;;;
2021/01/25 00:16:16;;;;;;;6.2;4.47;;;3.7;99.9;;;;;;;;;
2021/01/25 00:16:26;;;;;;;6.2;4.47;;;3.7;99.9;;;;;;;;;
2021/01/25 00:16:42;;;;;;;5.43;3.9;;;3.7;99.9;;;;;;;;;
2021/01/25 00:16:52;;;;;;;5.43;3.9;;;3.7;99.9;;;;;;;;;
2021/01/25 00:17:02;;;;;;;5.43;3.9;;;3.7;99.9;;;;;;;;;
2021/01/25 00:17:07;;;;;;;5.43;3.9;;;3.7;99.9;;;;;;;;;
2021/01/25 00:17:17;;;;;;;5.43;3.9;;;3.7;99.9;;;;;;;;;
2021/01/25 00:17:28;;;;;;;5.43;3.9;;;3.7;99.9;;;;;;;;;
2021/01/25 00:17:38;;;;;;;4.37;3.93;;;3.6;99.9;;;;;;;;;
2021/01/25 00:17:53;;;;;;;4.37;3.93;;;3.6;99.9;;;;;;;;;
2021/01/25 00:18:02;;;;;;;4.37;3.93;;;3.6;99.9;;;;;;;;;
2021/01/25 00:18:09;;;;;;;4.37;3.93;;;3.6;99.9;;;;;;;;;
2021/01/25 00:18:14;;;;;;;4.37;3.93;;;3.6;99.9;;;;;;;;;
2021/01/25 00:18:29;;;;;;;4.37;3.93;;;3.6;99.9;;;;;;;;;
2021/01/25 00:18:39;;;;;;;4.8;3.93;;;3.5;99.9;;;;;;;;;
2021/01/25 00:18:55;;;;;;;4.8;3.93;;;3.5;99.9;;;;;;;;;
2021/01/25 00:19:02;;;;;;;4.8;3.93;;;3.5;99.9;;;;;;;;;
2021/01/25 00:19:05;;;;;;;4.8;3.93;;;3.5;99.9;;;;;;;;;
2021/01/25 00:19:15;;;;;;;4.8;3.93;;;3.5;99.9;;;;;;;;;
2021/01/25 00:19:31;;;;;;;4.33;3.87;;;3.4;99.9;;;;;;;;;
2021/01/25 00:19:41;;;;;;;4.33;3.87;;;3.4;99.9;;;;;;;;;
2021/01/25 00:19:51;;;;;;;4.33;3.87;;;3.4;99.9;;;;;;;;;
2021/01/25 00:20:02;;;;;;;4.33;3.87;;;3.4;99.9;;;;;;;;;
2021/01/25 00:20:06;;;;;;;4.33;3.87;;;3.4;99.9;;;;;;;;;
2021/01/25 00:20:17;;;;;;;4.33;3.87;;;3.4;99.9;;;;;;;;;
2021/01/25 00:20:27;;;;;;;4.33;3.87;;;3.4;99.9;;;;;;;;;
2021/01/25 00:20:42;;;;;;;4.93;3.67;;;3.5;99.9;;;;;;;;;
2021/01/25 00:20:53;;;;;;;4.93;3.67;;;3.5;99.9;;;;;;;;;
2021/01/25 00:21:01;;;;;;;4.93;3.67;;;3.5;99.9;;;;;;;;;
2021/01/25 00:21:08;;;;;;;4.93;3.67;;;3.5;99.9;;;;;;;;;
2021/01/25 00:21:13;;;;;;;4.93;3.67;;;3.5;99.9;;;;;;;;;
2021/01/25 00:21:28;;;;;;;4.93;3.67;;;3.5;99.9;;;;;;;;;
2021/01/25 00:21:44;;;;;;;4.43;3.6;;;3.5;99.9;;;;;;;;;
2021/01/25 00:21:54;;;;;;;4.43;3.6;;;3.5;99.9;;;;;;;;;
2021/01/25 00:22:02;;;;;;;4.43;3.6;;;3.5;99.9;;;;;;;;;
2021/01/25 00:22:04;;;;;;;4.43;3.6;;;3.5;99.9;;;;;;;;;
2021/01/25 00:22:14;;;;;;;4.43;3.6;;;3.5;99.9;;;;;;;;;
2021/01/25 00:22:30;;;;;;;4.43;3.6;;;3.5;99.9;;;;;;;;;
2021/01/25 00:22:40;;;;;;;5.2;3.73;;;3.5;99.9;;;;;;;;;
2021/01/25 00:22:55;;;;;;;5.2;3.73;;;3.5;99.9;;;;;;;;;
2021/01/25 00:23:02;;;;;;;5.2;3.73;;;3.5;99.9;;;;;;;;;
2021/01/25 00:23:06;;;;;;;5.2;3.73;;;3.5;99.9;;;;;;;;;
2021/01/25 00:23:16;;;;;;;5.2;3.73;;;3.5;99.9;;;;;;;;;
2021/01/25 00:23:26;;;;;;;5.2;3.73;;;3.5;99.9;;;;;;;;;
2021/01/25 00:23:42;;;;;;;4.67;3.9;;;3.4;99.9;;;;;;;;;
2021/01/25 00:23:58;;;;;;;4.67;3.9;;;3.4;99.9;;;;;;;;;
2021/01/25 00:24:02;;;;;;;4.67;3.9;;;3.4;99.9;;;;;;;;;
2021/01/25 00:24:07;;;;;;;4.67;3.9;;;3.4;99.9;;;;;;;;;
2021/01/25 00:24:13;;;;;;;4.67;3.9;;;3.4;99.9;;;;;;;;;
2021/01/25 00:24:28;;;;;;;4.67;3.9;;;3.4;99.9;;;;;;;;;
2021/01/25 00:24:43;;;;;;;3.9;3.5;;;3.4;99.9;;;;;;;;;
2021/01/25 00:24:53;;;;;;;3.9;3.5;;;3.4;99.9;;;;;;;;;
2021/01/25 00:25:02;;;;;;;3.9;3.5;;;3.4;99.9;;;;;;;;;
2021/01/25 00:25:09;;;;;;;3.9;3.5;;;3.4;99.9;;;;;;;;;
2021/01/25 00:25:14;;;;;;;3.9;3.5;;;3.4;99.9;;;;;;;;;
2021/01/25 00:25:29;;;;;;;3.9;3.5;;;3.4;99.9;;;;;;;;;
2021/01/25 00:25:39;;;;;;;4.43;3.5;;;3.5;99.9;;;;;;;;;
2021/01/25 00:25:55;;;;;;;4.43;3.5;;;3.5;99.9;;;;;;;;;
2021/01/25 00:26:01;;;;;;;4.43;3.5;;;3.5;99.9;;;;;;;;;
2021/01/25 00:26:10;;;;;;;4.43;3.5;;;3.5;99.9;;;;;;;;;
2021/01/25 00:26:15;;;;;;;4.43;3.5;;;3.5;99.9;;;;;;;;;
2021/01/25 00:26:25;;;;;;;4.43;3.5;;;3.5;99.9;;;;;;;;;
2021/01/25 00:26:41;;;;;;;5.77;4.27;;;3.5;99.9;;;;;;;;;
2021/01/25 00:26:56;;;;;;;5.77;4.27;;;3.5;99.9;;;;;;;;;
2021/01/25 00:27:02;;;;;;;5.77;4.27;;;3.5;99.9;;;;;;;;;
2021/01/25 00:27:06;;;;;;;5.77;4.27;;;3.5;99.9;;;;;;;;;
2021/01/25 00:27:16;;;;;;;5.77;4.27;;;3.5;99.9;;;;;;;;;
2021/01/25 00:27:27;;;;;;;5.77;4.27;;;3.5;99.9;;;;;;;;;
2021/01/25 00:27:42;;;;;;;4.73;3.9;;;3.5;99.9;;;;;;;;;
2021/01/25 00:27:52;;;;;;;4.73;3.9;;;3.5;99.9;;;;;;;;;
2021/01/25 00:28:01;;;;;;;4.73;3.9;;;3.5;99.9;;;;;;;;;
2021/01/25 00:28:08;;;;;;;4.73;3.9;;;3.5;99.9;;;;;;;;;
2021/01/25 00:28:13;;;;;;;4.73;3.9;;;3.5;99.9;;;;;;;;;
2021/01/25 00:28:28;;;;;;;4.73;3.9;;;3.5;99.9;;;;;;;;;
2021/01/25 00:28:38;;;;;;;5.67;3.77;;;3.5;99.9;;;;;;;;;
2021/01/25 00:28:54;;;;;;;5.67;3.77;;;3.5;99.9;;;;;;;;;
2021/01/25 00:29:02;;;;;;;5.67;3.77;;;3.5;99.9;;;;;;;;;
2021/01/25 00:29:09;;;;;;;5.67;3.77;;;3.5;99.9;;;;;;;;;
2021/01/25 00:29:14;;;;;;;5.67;3.77;;;3.5;99.9;;;;;;;;;
2021/01/25 00:29:30;;;;;;;5.67;3.77;;;3.5;99.9;;;;;;;;;
2021/01/25 00:29:40;;;;;;;4.33;3.5;;;3.6;99.9;;;;;;;;;
2021/01/25 00:29:55;;;;;;;4.33;3.5;;;3.6;99.9;;;;;;;;;
2021/01/25 00:30:02;;;;;;;4.33;3.5;;;3.6;99.9;;;;;;;;;
2021/01/25 00:30:06;;;;;;;4.33;3.5;;;3.6;99.9;;;;;;;;;
2021/01/25 00:30:16;;;;;;;4.33;3.5;;;3.6;99.9;;;;;;;;;
2021/01/25 00:30:26;;;;;;;4.33;3.5;;;3.6;99.9;;;;;;;;;
2021/01/25 00:30:41;;;;;;;4.87;3.97;;;3.6;99.9;;;;;;;;;
2021/01/25 00:30:52;;;;;;;4.87;3.97;;;3.6;99.9;;;;;;;;;
2021/01/25 00:31:01;;;;;;;4.87;3.97;;;3.6;99.9;;;;;;;;;
2021/01/25 00:31:07;;;;;;;4.87;3.97;;;3.6;99.9;;;;;;;;;
2021/01/25 00:31:12;;;;;;;4.87;3.97;;;3.6;99.9;;;;;;;;;
2021/01/25 00:31:27;;;;;;;4.87;3.97;;;3.6;99.9;;;;;;;;;
2021/01/25 00:31:43;;;;;;;5.8;4.2;;;3.6;99.9;;;;;;;;;
2021/01/25 00:31:54;;;;;;;5.8;4.2;;;3.6;99.9;;;;;;;;;
2021/01/25 00:32:02;;;;;;;5.8;4.2;;;3.6;99.9;;;;;;;;;
2021/01/25 00:32:08;;;;;;;5.8;4.2;;;3.6;99.9;;;;;;;;;
2021/01/25 00:32:14;;;;;;;5.8;4.2;;;3.6;99.9;;;;;;;;;
2021/01/25 00:32:29;;;;;;;5.8;4.2;;;3.6;99.9;;;;;;;;;
2021/01/25 00:32:39;;;;;;;4.33;3.73;;;3.5;99.9;;;;;;;;;
2021/01/25 00:32:54;;;;;;;4.33;3.73;;;3.5;99.9;;;;;;;;;
2021/01/25 00:33:02;;;;;;;4.33;3.73;;;3.5;99.9;;;;;;;;;
2021/01/25 00:33:05;;;;;;;4.33;3.73;;;3.5;99.9;;;;;;;;;
2021/01/25 00:33:15;;;;;;;4.33;3.73;;;3.5;99.9;;;;;;;;;
2021/01/25 00:33:25;;;;;;;4.33;3.73;;;3.5;99.9;;;;;;;;;
2021/01/25 00:33:41;;;;;;;4.37;3.8;;;3.5;99.9;;;;;;;;;
2021/01/25 00:33:56;;;;;;;4.37;3.8;;;3.5;99.9;;;;;;;;;
2021/01/25 00:34:02;;;;;;;4.37;3.8;;;3.5;99.9;;;;;;;;;
2021/01/25 00:34:06;;;;;;;4.37;3.8;;;3.5;99.9;;;;;;;;;
2021/01/25 00:34:16;;;;;;;4.37;3.8;;;3.5;99.9;;;;;;;;;
2021/01/25 00:34:27;;;;;;;4.37;3.8;;;3.5;99.9;;;;;;;;;
2021/01/25 00:34:43;;;;;;;4.43;3.9;;;3.5;99.9;;;;;;;;;
2021/01/25 00:34:52;;;;;;;4.43;3.9;;;3.5;99.9;;;;;;;;;
2021/01/25 00:35:02;;;;;;;4.43;3.9;;;3.5;99.9;;;;;;;;;
2021/01/25 00:35:08;;;;;;;4.43;3.9;;;3.5;99.9;;;;;;;;;
2021/01/25 00:35:13;;;;;;;4.43;3.9;;;3.5;99.9;;;;;;;;;
2021/01/25 00:35:28;;;;;;;4.43;3.9;;;3.5;99.9;;;;;;;;;
2021/01/25 00:35:38;;;;;;;4.8;3.87;;;3.5;99.9;;;;;;;;;
2021/01/25 00:35:54;;;;;;;4.8;3.87;;;3.5;99.9;;;;;;;;;
2021/01/25 00:36:01;;;;;;;4.8;3.87;;;3.5;99.9;;;;;;;;;
2021/01/25 00:36:09;;;;;;;4.8;3.87;;;3.5;99.9;;;;;;;;;
2021/01/25 00:36:14;;;;;;;4.8;3.87;;;3.5;99.9;;;;;;;;;
2021/01/25 00:36:30;;;;;;;4.8;3.87;;;3.5;99.9;;;;;;;;;
2021/01/25 00:36:40;;;;;;;4.5;3.97;;;3.4;99.9;;;;;;;;;
2021/01/25 00:36:55;;;;;;;4.5;3.97;;;3.4;99.9;;;;;;;;;
2021/01/25 00:37:02;;;;;;;4.5;3.97;;;3.4;99.9;;;;;;;;;
2021/01/25 00:37:05;;;;;;;4.5;3.97;;;3.4;99.9;;;;;;;;;
2021/01/25 00:37:16;;;;;;;4.5;3.97;;;3.4;99.9;;;;;;;;;
2021/01/25 00:37:26;;;;;;;4.5;3.97;;;3.4;99.9;;;;;;;;;
2021/01/25 00:37:41;;;;;;;4.93;3.9;;;3.4;99.9;;;;;;;;;
2021/01/25 00:37:51;;;;;;;4.93;3.9;;;3.4;99.9;;;;;;;;;
2021/01/25 00:38:01;;;;;;;4.93;3.9;;;3.4;99.9;;;;;;;;;
2021/01/25 00:38:07;;;;;;;4.93;3.9;;;3.4;99.9;;;;;;;;;
2021/01/25 00:38:12;;;;;;;4.93;3.9;;;3.4;99.9;;;;;;;;;
2021/01/25 00:38:27;;;;;;;4.93;3.9;;;3.4;99.9;;;;;;;;;
2021/01/25 00:38:43;;;;;;;4.1;3.7;;;3.5;99.9;;;;;;;;;
2021/01/25 00:38:53;;;;;;;4.1;3.7;;;3.5;99.9;;;;;;;;;
2021/01/25 00:39:02;;;;;;;4.1;3.7;;;3.5;99.9;;;;;;;;;
2021/01/25 00:39:08;;;;;;;4.1;3.7;;;3.5;99.9;;;;;;;;;
2021/01/25 00:39:13;;;;;;;4.1;3.7;;;3.5;99.9;;;;;;;;;
2021/01/25 00:39:29;;;;;;;4.1;3.7;;;3.5;99.9;;;;;;;;;
2021/01/25 00:39:39;;;;;;;4.2;3.8;;;3.5;99.9;;;;;;;;;
2021/01/25 00:39:54;;;;;;;4.2;3.8;;;3.5;99.9;;;;;;;;;
2021/01/25 00:40:02;;;;;;;4.2;3.8;;;3.5;99.9;;;;;;;;;
2021/01/25 00:40:05;;;;;;;4.2;3.8;;;3.5;99.9;;;;;;;;;
2021/01/25 00:40:15;;;;;;;4.2;3.8;;;3.5;99.9;;;;;;;;;
2021/01/25 00:40:25;;;;;;;4.2;3.8;;;3.5;99.9;;;;;;;;;
2021/01/25 00:40:41;;;;;;;6.2;3.93;;;3.5;99.9;;;;;;;;;
2021/01/25 00:40:56;;;;;;;6.2;3.93;;;3.5;99.9;;;;;;;;;
2021/01/25 00:41:01;;;;;;;6.2;3.93;;;3.5;99.9;;;;;;;;;
2021/01/25 00:41:06;;;;;;;6.2;3.93;;;3.5;99.9;;;;;;;;;
2021/01/25 00:41:21;;;;;;;6.2;3.93;;;3.5;99.9;;;;;;;;;
2021/01/25 00:41:26;;;;;;;6.2;3.93;;;3.5;99.9;;;;;;;;;
2021/01/25 00:41:42;;;;;;;5.23;3.83;;;3.5;99.9;;;;;;;;;
2021/01/25 00:41:52;;;;;;;5.23;3.83;;;3.5;99.9;;;;;;;;;
2021/01/25 00:42:02;;;;;;;5.23;3.83;;;3.5;99.9;;;;;;;;;
2021/01/25 00:42:07;;;;;;;5.23;3.83;;;3.5;99.9;;;;;;;;;
2021/01/25 00:42:18;;;;;;;5.23;3.83;;;3.5;99.9;;;;;;;;;
2021/01/25 00:42:28;;;;;;;5.23;3.83;;;3.5;99.9;;;;;;;;;
2021/01/25 00:42:38;;;;;;;7;4.33;;;3.5;99.9;;;;;;;;;
2021/01/25 00:42:54;;;;;;;7;4.33;;;3.5;99.9;;;;;;;;;
2021/01/25 00:43:01;;;;;;;7;4.33;;;3.5;99.9;;;;;;;;;
2021/01/25 00:43:09;;;;;;;7;4.33;;;3.5;99.9;;;;;;;;;
2021/01/25 00:43:14;;;;;;;7;4.33;;;3.5;99.9;;;;;;;;;
2021/01/25 00:43:34;;;;;;;7;4.33;;;3.5;99.9;;;;;;;;;
2021/01/25 00:43:40;;;;;;;4.97;3.97;;;3.5;99.9;;;;;;;;;
2021/01/25 00:43:55;;;;;;;4.97;3.97;;;3.5;99.9;;;;;;;;;
2021/01/25 00:44:02;;;;;;;4.97;3.97;;;3.5;99.9;;;;;;;;;
2021/01/25 00:44:05;;;;;;;4.97;3.97;;;3.5;99.9;;;;;;;;;
2021/01/25 00:44:15;;;;;;;4.97;3.97;;;3.5;99.9;;;;;;;;;
2021/01/25 00:44:31;;;;;;;4.97;3.97;;;3.5;99.9;;;;;;;;;
2021/01/25 00:44:41;;;;;;;7.53;4.5;;;3.5;99.9;;;;;;;;;
2021/01/25 00:44:51;;;;;;;7.53;4.5;;;3.5;99.9;;;;;;;;;
2021/01/25 00:45:02;;;;;;;7.53;4.5;;;3.5;99.9;;;;;;;;;
2021/01/25 00:45:07;;;;;;;7.53;4.5;;;3.5;99.9;;;;;;;;;
2021/01/25 00:45:12;;;;;;;7.53;4.5;;;3.5;99.9;;;;;;;;;
2021/01/25 00:45:27;;;;;;;7.53;4.5;;;3.5;99.9;;;;;;;;;
2021/01/25 00:45:48;;;;;;;5.2;4;;;3.5;99.9;;;;;;;;;
2021/01/25 00:45:53;;;;;;;5.2;4;;;3.5;99.9;;;;;;;;;
2021/01/25 00:46:02;;;;;;;5.2;4;;;3.5;99.9;;;;;;;;;
2021/01/25 00:46:08;;;;;;;5.2;4;;;3.5;99.9;;;;;;;;;
2021/01/25 00:46:14;;;;;;;5.2;4;;;3.5;99.9;;;;;;;;;
2021/01/25 00:46:29;;;;;;;5.2;4;;;3.5;99.9;;;;;;;;;
2021/01/25 00:46:44;;;;;;;4.3;3.8;;;3.5;99.9;;;;;;;;;
2021/01/25 00:46:54;;;;;;;4.3;3.8;;;3.5;99.9;;;;;;;;;
2021/01/25 00:47:02;;;;;;;4.3;3.8;;;3.5;99.9;;;;;;;;;
2021/01/25 00:47:04;;;;;;;4.3;3.8;;;3.5;99.9;;;;;;;;;
2021/01/25 00:47:15;;;;;;;4.3;3.8;;;3.5;99.9;;;;;;;;;
2021/01/25 00:47:25;;;;;;;4.3;3.8;;;3.5;99.9;;;;;;;;;
2021/01/25 00:47:41;;;;;;;4.4;3.73;;;3.6;99.9;;;;;;;;;
2021/01/25 00:48:01;;;;;;;4.4;3.73;;;3.6;99.9;;;;;;;;;
2021/01/25 00:48:01;;;;;;;4.4;3.73;;;3.6;99.9;;;;;;;;;
2021/01/25 00:48:06;;;;;;;4.4;3.73;;;3.6;99.9;;;;;;;;;
2021/01/25 00:48:16;;;;;;;4.4;3.73;;;3.6;99.9;;;;;;;;;
2021/01/25 00:48:28;;;;;;;4.4;3.73;;;3.6;99.9;;;;;;;;;
2021/01/25 00:48:42;;;;;;;4.8;3.7;;;3.6;99.9;;;;;;;;;
2021/01/25 00:48:57;;;;;;;4.8;3.7;;;3.6;99.9;;;;;;;;;
2021/01/25 00:49:02;;;;;;;4.8;3.7;;;3.6;99.9;;;;;;;;;
2021/01/25 00:49:07;;;;;;;4.8;3.7;;;3.6;99.9;;;;;;;;;
2021/01/25 00:49:12;;;;;;;4.8;3.7;;;3.6;99.9;;;;;;;;;
2021/01/25 00:49:28;;;;;;;4.8;3.7;;;3.6;99.9;;;;;;;;;
2021/01/25 00:49:38;;;;;;;4.8;3.7;;;3.6;99.9;;;;;;;;;
2021/01/25 00:49:53;;;;;;;4.83;3.73;;;3.6;99.9;;;;;;;;;
2021/01/25 00:50:02;;;;;;;4.83;3.73;;;3.6;99.9;;;;;;;;;
2021/01/25 00:50:14;;;;;;;4.83;3.73;;;3.6;99.9;;;;;;;;;
2021/01/25 00:50:14;;;;;;;4.83;3.73;;;3.6;99.9;;;;;;;;;
2021/01/25 00:50:29;;;;;;;4.83;3.73;;;3.6;99.9;;;;;;;;;
2021/01/25 00:50:39;;;;;;;6;3.8;;;3.6;99.9;;;;;;;;;
2021/01/25 00:50:55;;;;;;;6;3.8;;;3.6;99.9;;;;;;;;;
2021/01/25 00:51:01;;;;;;;6;3.8;;;3.6;99.9;;;;;;;;;
2021/01/25 00:51:10;;;;;;;6;3.8;;;3.6;99.9;;;;;;;;;
2021/01/25 00:51:15;;;;;;;6;3.8;;;3.6;99.9;;;;;;;;;
2021/01/25 00:51:26;;;;;;;6;3.8;;;3.6;99.9;;;;;;;;;
2021/01/25 00:51:41;;;;;;;6.23;3.87;;;3.6;99.9;;;;;;;;;
2021/01/25 00:51:51;;;;;;;6.23;3.87;;;3.6;99.9;;;;;;;;;
2021/01/25 00:52:02;;;;;;;6.23;3.87;;;3.6;99.9;;;;;;;;;
2021/01/25 00:52:07;;;;;;;6.23;3.87;;;3.6;99.9;;;;;;;;;
2021/01/25 00:52:17;;;;;;;6.23;3.87;;;3.6;99.9;;;;;;;;;
2021/01/25 00:52:27;;;;;;;6.23;3.87;;;3.6;99.9;;;;;;;;;
2021/01/25 00:52:42;;;;;;;5.33;4.1;;;3.6;99.9;;;;;;;;;
2021/01/25 00:52:53;;;;;;;5.33;4.1;;;3.6;99.9;;;;;;;;;
2021/01/25 00:53:02;;;;;;;5.33;4.1;;;3.6;99.9;;;;;;;;;
2021/01/25 00:53:08;;;;;;;5.33;4.1;;;3.6;99.9;;;;;;;;;
2021/01/25 00:53:13;;;;;;;5.33;4.1;;;3.6;99.9;;;;;;;;;
2021/01/25 00:53:28;;;;;;;5.33;4.1;;;3.6;99.9;;;;;;;;;
2021/01/25 00:53:39;;;;;;;5.33;4.1;;;3.6;99.9;;;;;;;;;
2021/01/25 00:53:54;;;;;;;4.9;3.93;;;3.6;99.9;;;;;;;;;
2021/01/25 00:54:02;;;;;;;4.9;3.93;;;3.6;99.9;;;;;;;;;
2021/01/25 00:54:04;;;;;;;4.9;3.93;;;3.6;99.9;;;;;;;;;
2021/01/25 00:54:14;;;;;;;4.9;3.93;;;3.6;99.9;;;;;;;;;
2021/01/25 00:54:30;;;;;;;4.9;3.93;;;3.6;99.9;;;;;;;;;
2021/01/25 00:54:40;;;;;;;4.9;3.93;;;3.6;99.9;;;;;;;;;
2021/01/25 00:54:55;;;;;;;5.23;4.4;;;3.6;99.9;;;;;;;;;
2021/01/25 00:55:02;;;;;;;5.23;4.4;;;3.6;99.9;;;;;;;;;
2021/01/25 00:55:06;;;;;;;5.23;4.4;;;3.6;99.9;;;;;;;;;
2021/01/25 00:55:16;;;;;;;5.23;4.4;;;3.6;99.9;;;;;;;;;
2021/01/25 00:55:26;;;;;;;5.23;4.4;;;3.6;99.9;;;;;;;;;
2021/01/25 00:55:42;;;;;;;5.33;4.2;;;3.6;99.9;;;;;;;;;
2021/01/25 00:55:52;;;;;;;5.33;4.2;;;3.6;99.9;;;;;;;;;
2021/01/25 00:56:02;;;;;;;5.33;4.2;;;3.6;99.9;;;;;;;;;
2021/01/25 00:56:07;;;;;;;5.33;4.2;;;3.6;99.9;;;;;;;;;
2021/01/25 00:56:12;;;;;;;5.33;4.2;;;3.6;99.9;;;;;;;;;
2021/01/25 00:56:28;;;;;;;5.33;4.2;;;3.6;99.9;;;;;;;;;
2021/01/25 00:56:43;;;;;;;4.9;3.93;;;3.6;99.9;;;;;;;;;
2021/01/25 00:56:53;;;;;;;4.9;3.93;;;3.6;99.9;;;;;;;;;
2021/01/25 00:57:02;;;;;;;4.9;3.93;;;3.6;99.9;;;;;;;;;
2021/01/25 00:57:09;;;;;;;4.9;3.93;;;3.6;99.9;;;;;;;;;
2021/01/25 00:57:14;;;;;;;4.9;3.93;;;3.6;99.9;;;;;;;;;
2021/01/25 00:57:29;;;;;;;4.9;3.93;;;3.6;99.9;;;;;;;;;
2021/01/25 00:57:40;;;;;;;4.9;3.93;;;3.6;99.9;;;;;;;;;
2021/01/25 00:57:55;;;;;;;7.33;4.6;;;3.6;99.9;;;;;;;;;
2021/01/25 00:58:01;;;;;;;7.33;4.6;;;3.6;99.9;;;;;;;;;
2021/01/25 00:58:05;;;;;;;7.33;4.6;;;3.6;99.9;;;;;;;;;
2021/01/25 00:58:15;;;;;;;7.33;4.6;;;3.6;99.9;;;;;;;;;
2021/01/25 00:58:25;;;;;;;7.33;4.6;;;3.6;99.9;;;;;;;;;
2021/01/25 00:58:41;;;;;;;7.33;4.6;;;3.6;99.9;;;;;;;;;
2021/01/25 00:59:01;;;;;;;5.03;4.13;;;3.5;99.9;;;;;;;;;
2021/01/25 00:59:02;;;;;;;5.03;4.13;;;3.5;99.9;;;;;;;;;
2021/01/25 00:59:06;;;;;;;5.03;4.13;;;3.5;99.9;;;;;;;;;
2021/01/25 00:59:17;;;;;;;5.03;4.13;;;3.5;99.9;;;;;;;;;
2021/01/25 00:59:27;;;;;;;5.03;4.13;;;3.5;99.9;;;;;;;;;
2021/01/25 00:59:42;;;;;;;4.7;4.17;;;3.5;99.9;;;;;;;;;
2021/01/25 00:59:52;;;;;;;4.7;4.17;;;3.5;99.9;;;;;;;;;
2021/01/25 01:00:01;;;;;;;4.7;4.17;;;3.5;99.9;;;;;;;;;
2021/01/25 01:00:09;;;;;;;4.7;4.17;;;3.5;99.9;;;;;;;;;
2021/01/25 01:00:13;;;;;;;4.7;4.17;;;3.5;99.9;;;;;;;;;
2021/01/25 01:00:28;;;;;;;4.7;4.17;;;3.5;99.9;;;;;;;;;
2021/01/25 01:00:38;;;;;;;4.7;4.17;;;3.5;99.9;;;;;;;;;
2021/01/25 01:00:54;;;;;;;5.7;4.53;;;3.5;99.9;;;;;;;;;
2021/01/25 01:01:02;;;;;;;5.7;4.53;;;3.5;99.9;;;;;;;;;
2021/01/25 01:01:14;;;;;;;5.7;4.53;;;3.5;99.9;;;;;;;;;
2021/01/25 01:01:14;;;;;;;5.7;4.53;;;3.5;99.9;;;;;;;;;
2021/01/25 01:01:30;;;;;;;5.7;4.53;;;3.5;99.9;;;;;;;;;
2021/01/25 01:01:40;;;;;;;5.7;4.53;;;3.5;99.9;;;;;;;;;
2021/01/25 01:01:55;;;;;;;4.73;4.07;;;3.5;99.9;;;;;;;;;
2021/01/25 01:02:02;;;;;;;4.73;4.07;;;3.5;99.9;;;;;;;;;
2021/01/25 01:02:06;;;;;;;4.73;4.07;;;3.5;99.9;;;;;;;;;
2021/01/25 01:02:16;;;;;;;4.73;4.07;;;3.5;99.9;;;;;;;;;
2021/01/25 01:02:26;;;;;;;4.73;4.07;;;3.5;99.9;;;;;;;;;
2021/01/25 01:02:41;;;;;;;4.73;4.07;;;3.5;99.9;;;;;;;;;
2021/01/25 01:02:52;;;;;;;5.03;3.93;;;3.5;99.9;;;;;;;;;
2021/01/25 01:03:02;;;;;;;5.03;3.93;;;3.5;99.9;;;;;;;;;
2021/01/25 01:03:07;;;;;;;5.03;3.93;;;3.5;99.9;;;;;;;;;
2021/01/25 01:03:12;;;;;;;5.03;3.93;;;3.5;99.9;;;;;;;;;
2021/01/25 01:03:27;;;;;;;5.03;3.93;;;3.5;99.9;;;;;;;;;
2021/01/25 01:03:43;;;;;;;5.03;3.93;;;3.5;99.9;;;;;;;;;
2021/01/25 01:03:53;;;;;;;5.87;4.13;;;3.5;99.9;;;;;;;;;
2021/01/25 01:04:02;;;;;;;5.87;4.13;;;3.5;99.9;;;;;;;;;
2021/01/25 01:04:08;;;;;;;5.87;4.13;;;3.5;99.9;;;;;;;;;
2021/01/25 01:04:13;;;;;;;5.87;4.13;;;3.5;99.9;;;;;;;;;
2021/01/25 01:04:29;;;;;;;5.87;4.13;;;3.5;99.9;;;;;;;;;
2021/01/25 01:04:39;;;;;;;5.87;4.13;;;3.5;99.9;;;;;;;;;
2021/01/25 01:04:54;;;;;;;5.03;4.47;;;3.6;99.9;;;;;;;;;
2021/01/25 01:05:02;;;;;;;5.03;4.47;;;3.6;99.9;;;;;;;;;
2021/01/25 01:05:05;;;;;;;5.03;4.47;;;3.6;99.9;;;;;;;;;
2021/01/25 01:05:15;;;;;;;5.03;4.47;;;3.6;99.9;;;;;;;;;
2021/01/25 01:05:25;;;;;;;5.03;4.47;;;3.6;99.9;;;;;;;;;
2021/01/25 01:05:41;;;;;;;5.03;4.47;;;3.6;99.9;;;;;;;;;
2021/01/25 01:05:56;;;;;;;6.03;4.2;;;3.6;99.9;;;;;;;;;
2021/01/25 01:06:02;;;;;;;6.03;4.2;;;3.6;99.9;;;;;;;;;
2021/01/25 01:06:06;;;;;;;6.03;4.2;;;3.6;99.9;;;;;;;;;
2021/01/25 01:06:16;;;;;;;6.03;4.2;;;3.6;99.9;;;;;;;;;
2021/01/25 01:06:27;;;;;;;6.03;4.2;;;3.6;99.9;;;;;;;;;
2021/01/25 01:06:42;;;;;;;6.03;4.2;;;3.6;99.9;;;;;;;;;
2021/01/25 01:06:52;;;;;;;7.93;4.3;;;3.6;99.9;;;;;;;;;
2021/01/25 01:07:02;;;;;;;7.93;4.3;;;3.6;99.9;;;;;;;;;
2021/01/25 01:07:08;;;;;;;7.93;4.3;;;3.6;99.9;;;;;;;;;
2021/01/25 01:07:18;;;;;;;7.93;4.3;;;3.6;99.9;;;;;;;;;
2021/01/25 01:07:28;;;;;;;7.93;4.3;;;3.6;99.9;;;;;;;;;
2021/01/25 01:07:38;;;;;;;7.93;4.3;;;3.6;99.9;;;;;;;;;
2021/01/25 01:07:54;;;;;;;5.63;4.07;;;3.5;99.9;;;;;;;;;
2021/01/25 01:08:02;;;;;;;5.63;4.07;;;3.5;99.9;;;;;;;;;
2021/01/25 01:08:09;;;;;;;5.63;4.07;;;3.5;99.9;;;;;;;;;
2021/01/25 01:08:14;;;;;;;5.63;4.07;;;3.5;99.9;;;;;;;;;
2021/01/25 01:08:29;;;;;;;5.63;4.07;;;3.5;99.9;;;;;;;;;
2021/01/25 01:08:40;;;;;;;5.63;4.07;;;3.5;99.9;;;;;;;;;
2021/01/25 01:08:55;;;;;;;4.47;3.87;;;3.4;99.9;;;;;;;;;
2021/01/25 01:09:02;;;;;;;4.47;3.87;;;3.4;99.9;;;;;;;;;
2021/01/25 01:09:05;;;;;;;4.47;3.87;;;3.4;99.9;;;;;;;;;
2021/01/25 01:09:16;;;;;;;4.47;3.87;;;3.4;99.9;;;;;;;;;
2021/01/25 01:09:31;;;;;;;4.47;3.87;;;3.4;99.9;;;;;;;;;
2021/01/25 01:09:41;;;;;;;4.47;3.87;;;3.4;99.9;;;;;;;;;
2021/01/25 01:09:51;;;;;;;5.63;4.3;;;3.4;99.9;;;;;;;;;
2021/01/25 01:10:01;;;;;;;5.63;4.3;;;3.4;99.9;;;;;;;;;
2021/01/25 01:10:07;;;;;;;5.63;4.3;;;3.4;99.9;;;;;;;;;
2021/01/25 01:10:17;;;;;;;5.63;4.3;;;3.4;99.9;;;;;;;;;
2021/01/25 01:10:27;;;;;;;5.63;4.3;;;3.4;99.9;;;;;;;;;
2021/01/25 01:10:43;;;;;;;5.63;4.3;;;3.4;99.9;;;;;;;;;
2021/01/25 01:10:53;;;;;;;6.83;4.63;;;3.5;99.9;;;;;;;;;
2021/01/25 01:11:02;;;;;;;6.83;4.63;;;3.5;99.9;;;;;;;;;
2021/01/25 01:11:08;;;;;;;6.83;4.63;;;3.5;99.9;;;;;;;;;
2021/01/25 01:11:13;;;;;;;6.83;4.63;;;3.5;99.9;;;;;;;;;
2021/01/25 01:11:30;;;;;;;6.83;4.63;;;3.5;99.9;;;;;;;;;
2021/01/25 01:11:44;;;;;;;6.83;4.63;;;3.5;99.9;;;;;;;;;
2021/01/25 01:11:56;;;;;;;6.3;4.37;;;3.4;99.9;;;;;;;;;
2021/01/25 01:12:02;;;;;;;6.3;4.37;;;3.4;99.9;;;;;;;;;
2021/01/25 01:12:05;;;;;;;6.3;4.37;;;3.4;99.9;;;;;;;;;
2021/01/25 01:12:15;;;;;;;6.3;4.37;;;3.4;99.9;;;;;;;;;
2021/01/25 01:12:30;;;;;;;6.3;4.37;;;3.4;99.9;;;;;;;;;
2021/01/25 01:12:40;;;;;;;6.3;4.37;;;3.4;99.9;;;;;;;;;
2021/01/25 01:12:56;;;;;;;6.2;4.77;;;3.4;99.9;;;;;;;;;
2021/01/25 01:13:01;;;;;;;6.2;4.77;;;3.4;99.9;;;;;;;;;
2021/01/25 01:13:06;;;;;;;6.2;4.77;;;3.4;99.9;;;;;;;;;
2021/01/25 01:13:16;;;;;;;6.2;4.77;;;3.4;99.9;;;;;;;;;
2021/01/25 01:13:26;;;;;;;6.2;4.77;;;3.4;99.9;;;;;;;;;
2021/01/25 01:13:42;;;;;;;6.2;4.77;;;3.4;99.9;;;;;;;;;
2021/01/25 01:13:57;;;;;;;5.2;4.53;;;3.5;99.9;;;;;;;;;
2021/01/25 01:14:02;;;;;;;5.2;4.53;;;3.5;99.9;;;;;;;;;
2021/01/25 01:14:07;;;;;;;5.2;4.53;;;3.5;99.9;;;;;;;;;
2021/01/25 01:14:18;;;;;;;5.2;4.53;;;3.5;99.9;;;;;;;;;
2021/01/25 01:14:28;;;;;;;5.2;4.53;;;3.5;99.9;;;;;;;;;
2021/01/25 01:14:43;;;;;;;5.2;4.53;;;3.5;99.9;;;;;;;;;
2021/01/25 01:14:54;;;;;;;5.63;4.1;;;3.5;99.9;;;;;;;;;
2021/01/25 01:15:01;;;;;;;5.63;4.1;;;3.5;99.9;;;;;;;;;
2021/01/25 01:15:09;;;;;;;5.63;4.1;;;3.5;99.9;;;;;;;;;
2021/01/25 01:15:14;;;;;;;5.63;4.1;;;3.5;99.9;;;;;;;;;
2021/01/25 01:15:29;;;;;;;5.63;4.1;;;3.5;99.9;;;;;;;;;
2021/01/25 01:15:40;;;;;;;5.63;4.1;;;3.5;99.9;;;;;;;;;
2021/01/25 01:15:55;;;;;;;5.3;4.5;;;3.4;99.9;;;;;;;;;
2021/01/25 01:16:02;;;;;;;5.3;4.5;;;3.4;99.9;;;;;;;;;
2021/01/25 01:16:10;;;;;;;5.3;4.5;;;3.4;99.9;;;;;;;;;
2021/01/25 01:16:15;;;;;;;5.3;4.5;;;3.4;99.9;;;;;;;;;
2021/01/25 01:16:31;;;;;;;5.3;4.5;;;3.4;99.9;;;;;;;;;
2021/01/25 01:16:41;;;;;;;5.3;4.5;;;3.4;99.9;;;;;;;;;
2021/01/25 01:16:56;;;;;;;5.23;4.63;;;3.4;99.9;;;;;;;;;
2021/01/25 01:17:02;;;;;;;5.23;4.63;;;3.4;99.9;;;;;;;;;
2021/01/25 01:17:07;;;;;;;5.23;4.63;;;3.4;99.9;;;;;;;;;